Airfield :
LOGIN :

Register | Disclaimer

   EN    FR    IT 

 










Legend :    VFR   Marginal VFR   IFR   Intensive IFR   Very Intensive IFR
Visi :
Ceiling :
>= 8 km
>= 3000ft
5 to 8 km
1000 to 3000 ft
1500m to 5 km
500 to 1000 ft
800 to 1500m
200 to 500 ft
< 800m
< 200 ft
Symbols :   Thunderstorms  Fog  Heavy snow  Heavy precipitations  Wind > 20 kt
SIGMETs :     Misc.  Thunderstorms  Icing  Turbulence  Mountain Waves  Volcanic Ashes







- Airport Elevation : 74 ft
- IATA code : EIN


EHEH - Eindhoven

CURRENT METAR :
  • 152025Z AUTO VRB02KT 9999 NCD 21/09 Q1015 BLU 07005KT CAVOK

EXPIRED METARs :
  • 151955Z AUTO 07004KT 9999 NCD 24/08 Q1014 BLU 06006KT CAVOK
  • 151925Z AUTO 07005KT 340V100 9999 NCD 26/08 Q1014 BLU 06006KT CAVOK
  • 151855Z AUTO 07005KT 9999 NCD 27/08 Q1014 BLU 06006KT CAVOK
  • 151825Z AUTO 07007KT 020V110 9999 NCD 27/08 Q1014 BLU 06006KT CAVOK
  • 151755Z AUTO 05008KT 030V120 9999 NCD 28/08 Q1014 BLU 06006KT CAVOK

TAF TAF EHEH
Valid from the 15 at 18:00 until the 17 at 00:00 UTC


151657Z 1518/1624 04006KT CAVOK
No reported NOTAMs for that airfield.



MET'MAP, your aeronautical weather chart ! - Copyright ORBIFLY December 2007 - Disclaimer

ORBIFLY MET'MAP TEAM :

Programming & Development : Alexandra Zaïnal
Concept & Development : Baudouin d'Aumeries
Co-Development & Prog : Marc-Olivier Méhu
Technical & hardware support : Manuel Goepfert

Contact : metmap@orbifly.com




SOURCES & CREDITS :

   NOAA